Time;durP1;ratioP1;P1;durP2;ratioP2;P2;SDS_P1;SDS_P2;PMS_P1;PMS_P2;Temp;Humidity;BMP_temperature;BMP_pressure;BME280_temperature;BME280_humidity;BME280_pressure;Samples;Min_cycle;Max_cycle;Signal;HPM_P1;HPM_P2
2022/12/05 00:02:21;;;;;;;9.35;4.50;;;21.40;99.90;;;;;;5035800;28;20039;-47
2022/12/05 00:04:47;;;;;;;6.25;4.47;;;21.40;99.90;;;;;;5051357;28;20477;-48
2022/12/05 00:07:13;;;;;;;6.25;4.38;;;21.40;99.90;;;;;;5035279;28;20021;-48
2022/12/05 00:09:38;;;;;;;6.65;4.53;;;21.40;99.90;;;;;;5030870;28;20118;-47
2022/12/05 00:12:05;;;;;;;6.20;4.43;;;21.40;99.90;;;;;;5030023;28;20052;-48
2022/12/05 00:14:30;;;;;;;14.30;4.93;;;21.40;99.90;;;;;;5030587;28;20017;-48
2022/12/05 00:16:56;;;;;;;5.97;4.18;;;21.40;99.90;;;;;;5029181;28;20029;-48
2022/12/05 00:19:22;;;;;;;6.43;4.40;;;21.40;99.90;;;;;;5030492;28;20079;-48
2022/12/05 00:21:48;;;;;;;6.57;4.43;;;21.40;99.90;;;;;;5045554;28;20029;-48
2022/12/05 00:24:15;;;;;;;5.60;4.00;;;21.40;99.90;;;;;;5051603;28;20075;-48
2022/12/05 00:26:41;;;;;;;12.32;4.55;;;21.40;99.90;;;;;;5037606;28;20041;-48
2022/12/05 00:29:07;;;;;;;5.88;4.38;;;21.40;99.90;;;;;;5045110;28;20032;-48
2022/12/05 00:31:33;;;;;;;8.52;5.05;;;21.40;99.90;;;;;;5034158;28;20029;-48
2022/12/05 00:34:00;;;;;;;6.32;4.28;;;21.30;99.90;;;;;;5034657;28;20079;-48
2022/12/05 00:36:29;;;;;;;5.78;3.83;;;21.30;99.90;;;;;;5035089;28;20025;-47
2022/12/05 00:38:57;;;;;;;6.22;4.65;;;21.30;99.90;;;;;;5054173;28;20116;-47
2022/12/05 00:41:26;;;;;;;6.90;4.68;;;21.30;99.90;;;;;;5053892;28;20437;-46
2022/12/05 00:43:52;;;;;;;6.03;4.13;;;21.30;99.90;;;;;;5053490;28;20052;-46
2022/12/05 00:46:21;;;;;;;6.47;4.28;;;21.30;99.90;;;;;;5055201;28;20079;-46
2022/12/05 00:48:47;;;;;;;7.18;4.70;;;21.30;99.90;;;;;;5051133;28;20032;-48
2022/12/05 00:51:14;;;;;;;6.25;4.35;;;21.30;99.90;;;;;;5034492;28;20101;-47
2022/12/05 00:53:40;;;;;;;5.25;3.67;;;21.30;99.90;;;;;;5053500;28;20058;-47
2022/12/05 00:56:12;;;;;;;5.43;3.58;;;21.30;99.90;;;;;;5054801;28;20363;-47
2022/12/05 00:58:39;;;;;;;11.90;4.20;;;21.30;99.90;;;;;;5048943;28;20033;-47
2022/12/05 01:01:05;;;;;;;4.50;3.50;;;21.30;99.90;;;;;;5061784;22;20049;-52
2022/12/05 01:03:31;;;;;;;5.20;4.13;;;21.20;99.90;;;;;;5054696;28;20036;-52
2022/12/05 01:05:58;;;;;;;6.25;4.10;;;21.30;99.90;;;;;;5054159;28;20017;-53
2022/12/05 01:08:24;;;;;;;13.27;4.30;;;21.20;99.90;;;;;;5054660;28;20415;-52
2022/12/05 01:10:54;;;;;;;5.78;3.90;;;21.20;99.90;;;;;;5054526;28;20033;-54
2022/12/05 01:13:20;;;;;;;4.78;3.58;;;21.20;99.90;;;;;;5054640;28;20021;-53
2022/12/05 01:15:46;;;;;;;5.07;3.65;;;21.20;99.90;;;;;;5054385;28;20096;-53
2022/12/05 01:18:11;;;;;;;5.82;3.90;;;21.20;99.90;;;;;;5054356;28;20064;-53
2022/12/05 01:20:41;;;;;;;4.75;3.78;;;21.20;99.90;;;;;;5029198;28;20099;-52
2022/12/05 01:23:07;;;;;;;6.38;4.22;;;21.20;99.90;;;;;;5053470;28;20493;-53
2022/12/05 01:25:33;;;;;;;5.82;3.90;;;21.20;99.90;;;;;;5053159;28;20036;-53
2022/12/05 01:27:59;;;;;;;5.13;3.60;;;21.20;99.90;;;;;;5053117;28;20033;-55
2022/12/05 01:30:25;;;;;;;7.10;3.85;;;21.10;99.90;;;;;;5053508;28;20028;-52
2022/12/05 01:32:51;;;;;;;5.72;3.75;;;21.10;99.90;;;;;;5035158;28;20025;-53
2022/12/05 01:35:17;;;;;;;6.93;3.97;;;21.10;99.90;;;;;;5052823;28;20543;-53
2022/12/05 01:37:43;;;;;;;6.00;3.72;;;21.10;99.90;;;;;;5052976;28;20090;-54
2022/12/05 01:40:09;;;;;;;4.80;3.92;;;21.10;99.90;;;;;;5032793;28;20017;-54
2022/12/05 01:42:35;;;;;;;6.63;3.67;;;21.10;99.90;;;;;;5051978;28;20055;-54
2022/12/05 01:45:06;;;;;;;8.48;4.53;;;21.10;99.90;;;;;;5053212;28;20017;-54
2022/12/05 01:47:35;;;;;;;9.57;4.03;;;21.10;99.90;;;;;;5053668;28;20128;-54
2022/12/05 01:50:02;;;;;;;6.80;4.10;;;21.10;99.90;;;;;;5053600;28;20016;-54
2022/12/05 01:52:30;;;;;;;5.63;3.60;;;21.10;99.90;;;;;;5053437;28;20013;-55
2022/12/05 01:55:00;;;;;;;8.73;3.60;;;21.00;99.90;;;;;;5053444;28;20079;-54
2022/12/05 01:57:26;;;;;;;5.00;3.42;;;21.00;99.90;;;;;;5051164;28;20025;-55
2022/12/05 01:59:56;;;;;;;5.20;3.35;;;21.00;99.90;;;;;;5061677;23;20109;-48
2022/12/05 02:02:22;;;;;;;6.63;4.00;;;21.00;99.90;;;;;;5033457;28;20025;-49
2022/12/05 02:05:01;;;;;;;6.43;3.67;;;21.00;99.90;;;;;;5033383;28;20002;-50
2022/12/05 02:07:27;;;;;;;5.35;3.80;;;21.00;99.90;;;;;;5029877;28;20036;-48
2022/12/05 02:09:53;;;;;;;5.18;3.53;;;21.00;99.90;;;;;;5032887;28;20156;-49
2022/12/05 02:12:20;;;;;;;7.13;3.85;;;21.00;99.90;;;;;;5032104;28;20529;-48
2022/12/05 02:15:00;;;;;;;6.03;3.40;;;21.00;99.90;;;;;;5033373;28;20474;-49
2022/12/05 02:17:35;;;;;;;8.50;3.33;;;21.00;99.90;;;;;;5032957;28;20037;-49
2022/12/05 02:20:19;;;;;;;4.45;2.72;;;21.00;99.90;;;;;;5031863;28;20021;-48
2022/12/05 02:23:22;;;;;;;4.85;3.40;;;21.00;99.90;;;;;;5031505;28;20029;-49
2022/12/05 02:26:18;;;;;;;4.35;2.83;;;21.00;99.90;;;;;;5015020;28;20505;-50
2022/12/05 02:28:52;;;;;;;10.05;3.53;;;21.00;99.90;;;;;;5032573;28;20032;-49
2022/12/05 02:31:54;;;;;;;6.97;4.47;;;20.90;99.90;;;;;;5013561;28;20033;-49
2022/12/05 02:34:48;;;;;;;7.95;3.83;;;20.90;99.90;;;;;;5027071;28;20040;-49
2022/12/05 02:37:21;;;;;;;5.45;3.22;;;20.90;99.90;;;;;;5030777;28;20378;-49
2022/12/05 02:39:54;;;;;;;4.88;3.38;;;20.90;99.90;;;;;;5032843;28;20029;-50
2022/12/05 02:42:37;;;;;;;29.73;5.20;;;20.90;99.90;;;;;;5031509;28;20104;-49
2022/12/05 02:45:08;;;;;;;8.20;3.58;;;20.90;99.90;;;;;;5031002;28;20021;-49
2022/12/05 02:47:41;;;;;;;5.20;3.50;;;20.90;99.90;;;;;;5029727;28;20024;-49
2022/12/05 02:50:10;;;;;;;4.78;3.63;;;20.90;99.90;;;;;;5030969;28;20036;-49
2022/12/05 02:52:36;;;;;;;8.63;3.70;;;20.80;99.90;;;;;;5031068;28;20018;-48
2022/12/05 02:55:03;;;;;;;6.50;3.65;;;20.80;99.90;;;;;;5030994;28;20100;-49
2022/12/05 02:57:29;;;;;;;6.32;3.67;;;20.80;99.90;;;;;;5030702;28;20049;-48
2022/12/05 02:59:55;;;;;;;11.10;3.88;;;20.80;99.90;;;;;;5045132;23;20428;-49
2022/12/05 03:02:33;;;;;;;9.88;3.90;;;20.80;99.90;;;;;;5032581;28;20037;-48
2022/12/05 03:05:34;;;;;;;6.75;3.45;;;20.80;99.90;;;;;;5032670;28;20425;-46
2022/12/05 03:08:03;;;;;;;4.38;2.80;;;20.80;99.90;;;;;;5028709;28;20091;-46
2022/12/05 03:10:32;;;;;;;4.70;2.92;;;20.80;99.90;;;;;;5032679;28;20029;-46
2022/12/05 03:13:09;;;;;;;6.10;3.80;;;20.80;99.90;;;;;;5032327;28;20025;-46
2022/12/05 03:15:40;;;;;;;7.10;4.70;;;20.80;99.90;;;;;;5032514;28;20041;-46
2022/12/05 03:18:21;;;;;;;7.75;3.80;;;20.80;99.90;;;;;;5014696;28;20037;-47
2022/12/05 03:21:13;;;;;;;8.20;3.35;;;20.80;99.90;;;;;;5032753;28;20044;-46
2022/12/05 03:23:45;;;;;;;6.38;3.28;;;20.80;99.90;;;;;;5004250;28;20040;-46
2022/12/05 03:26:19;;;;;;;7.45;3.58;;;20.80;99.90;;;;;;5032378;28;20026;-46
2022/12/05 03:29:07;;;;;;;5.30;3.40;;;20.80;99.90;;;;;;5032368;28;20029;-46
2022/12/05 03:31:56;;;;;;;5.47;3.10;;;20.70;99.90;;;;;;5032359;28;20450;-46
2022/12/05 03:34:42;;;;;;;5.65;2.83;;;20.70;99.90;;;;;;4993576;28;20108;-46
2022/12/05 03:37:26;;;;;;;4.80;3.28;;;20.80;99.90;;;;;;5032244;28;20025;-48
2022/12/05 03:40:33;;;;;;;5.55;3.67;;;20.70;99.90;;;;;;5014702;28;20029;-47
2022/12/05 03:43:22;;;;;;;5.03;3.15;;;20.70;99.90;;;;;;5032264;28;20025;-47
2022/12/05 03:46:02;;;;;;;6.00;3.08;;;20.70;99.90;;;;;;5014585;28;20029;-47
2022/12/05 03:48:42;;;;;;;7.53;3.60;;;20.70;99.90;;;;;;5032300;28;20044;-54
2022/12/05 03:51:11;;;;;;;8.63;3.33;;;20.70;99.90;;;;;;5032186;28;20021;-46
2022/12/05 03:53:55;;;;;;;5.90;3.20;;;20.70;99.90;;;;;;5031969;28;20073;-47
2022/12/05 03:56:28;;;;;;;9.02;3.15;;;20.70;99.90;;;;;;5032101;28;20108;-47
2022/12/05 03:59:19;;;;;;;6.50;3.33;;;20.70;99.90;;;;;;5032127;28;20029;-46
2022/12/05 04:01:47;;;;;;;4.05;2.88;;;20.70;99.90;;;;;;5014282;28;20050;-47
2022/12/05 04:04:35;;;;;;;5.28;3.38;;;20.70;99.90;;;;;;5034796;28;20021;-47
2022/12/05 04:07:04;;;;;;;4.95;3.13;;;20.70;99.90;;;;;;5035887;28;20091;-47
2022/12/05 04:09:45;;;;;;;6.07;3.35;;;20.60;99.90;;;;;;5036186;28;20021;-47
2022/12/05 04:12:22;;;;;;;5.15;3.50;;;20.70;99.90;;;;;;5035856;28;20108;-47
2022/12/05 04:14:52;;;;;;;5.50;3.45;;;20.60;99.90;;;;;;5035891;28;20025;-47
2022/12/05 04:17:57;;;;;;;4.40;3.08;;;20.60;99.90;;;;;;5018444;28;20593;-47
2022/12/05 04:23:34;;;;;;;4.03;3.28;;;20.60;99.90;;;;;;5035752;28;20040;-47
2022/12/05 04:26:30;;;;;;;6.13;3.72;;;20.60;99.90;;;;;;5017916;28;20025;-47
2022/12/05 04:29:03;;;;;;;5.63;2.80;;;20.60;99.90;;;;;;5035695;28;20482;-47
2022/12/05 04:31:39;;;;;;;4.18;2.70;;;20.60;99.90;;;;;;5035470;28;20022;-47
2022/12/05 04:34:09;;;;;;;4.93;2.78;;;20.60;99.90;;;;;;5035542;28;20026;-47
2022/12/05 04:36:50;;;;;;;5.80;3.17;;;20.60;99.90;;;;;;5035562;28;20083;-47
2022/12/05 04:39:26;;;;;;;5.03;3.33;;;20.60;99.90;;;;;;5035490;28;20033;-47
2022/12/05 04:42:05;;;;;;;4.93;3.38;;;20.60;99.90;;;;;;5035565;28;20020;-47
2022/12/05 04:44:40;;;;;;;3.80;2.42;;;20.60;99.90;;;;;;5035177;28;20511;-47
2022/12/05 04:47:09;;;;;;;3.70;2.95;;;20.50;99.90;;;;;;5035369;28;20026;-47
2022/12/05 04:49:39;;;;;;;6.55;3.05;;;20.60;99.90;;;;;;5035117;28;20026;-47
2022/12/05 04:52:09;;;;;;;5.97;3.10;;;20.50;99.90;;;;;;5035158;28;20025;-47
2022/12/05 04:54:45;;;;;;;6.07;3.47;;;20.50;99.90;;;;;;5034913;28;20079;-47
2022/12/05 04:57:55;;;;;;;4.00;2.70;;;20.50;99.90;;;;;;5034944;28;20124;-47
2022/12/05 05:00:21;;;;;;;7.05;3.15;;;20.50;99.90;;;;;;4988355;23;20081;-54
2022/12/05 05:03:17;;;;;;;6.20;3.50;;;20.50;99.90;;;;;;5014598;28;20120;-54
2022/12/05 05:05:47;;;;;;;4.68;3.38;;;20.50;99.90;;;;;;5012998;28;20125;-53
2022/12/05 05:08:23;;;;;;;5.13;3.40;;;20.50;99.90;;;;;;5015130;28;20528;-55
2022/12/05 05:10:56;;;;;;;4.70;2.60;;;20.60;99.90;;;;;;5015159;28;20034;-55
2022/12/05 05:13:22;;;;;;;4.63;3.00;;;20.50;99.90;;;;;;5015091;28;20039;-54
2022/12/05 05:15:48;;;;;;;4.63;2.85;;;20.50;99.90;;;;;;4997507;28;20030;-55
2022/12/05 05:18:13;;;;;;;4.53;3.25;;;20.50;99.90;;;;;;4997188;28;20103;-53
2022/12/05 05:20:39;;;;;;;5.28;3.50;;;20.50;99.90;;;;;;5014947;28;20042;-55
2022/12/05 05:23:05;;;;;;;4.00;2.72;;;20.50;99.90;;;;;;5014727;28;20029;-54
2022/12/05 05:25:31;;;;;;;5.93;3.70;;;20.50;99.90;;;;;;5015036;28;20025;-54
2022/12/05 05:27:57;;;;;;;4.03;2.65;;;20.50;99.90;;;;;;5015044;28;20113;-53
2022/12/05 05:30:23;;;;;;;4.22;2.95;;;20.50;99.90;;;;;;5014529;28;20025;-53
2022/12/05 05:32:49;;;;;;;5.50;2.97;;;20.50;99.90;;;;;;5013458;28;20109;-53
2022/12/05 05:35:15;;;;;;;6.18;3.25;;;20.50;99.90;;;;;;4996888;28;20513;-53
2022/12/05 05:37:42;;;;;;;4.38;2.60;;;20.50;99.90;;;;;;5014680;28;20034;-53
2022/12/05 05:40:10;;;;;;;5.97;2.97;;;20.50;99.90;;;;;;5014616;28;20033;-53
2022/12/05 05:42:35;;;;;;;3.50;2.97;;;20.50;99.90;;;;;;5014394;28;20382;-52
2022/12/05 05:45:01;;;;;;;4.88;3.00;;;20.50;99.90;;;;;;5014424;28;20029;-52
2022/12/05 05:47:27;;;;;;;3.88;3.00;;;20.50;99.90;;;;;;5014729;28;20030;-52
2022/12/05 05:49:53;;;;;;;5.65;3.42;;;20.50;99.90;;;;;;5014343;28;20057;-52
2022/12/05 05:52:18;;;;;;;3.58;2.60;;;20.50;99.90;;;;;;5014326;28;20113;-53
2022/12/05 05:54:44;;;;;;;4.50;2.80;;;20.50;99.90;;;;;;5014385;28;20097;-53
2022/12/05 05:57:10;;;;;;;5.25;2.70;;;20.50;99.90;;;;;;5013084;28;20433;-53
2022/12/05 05:59:35;;;;;;;3.58;3.03;;;20.50;99.90;;;;;;5013978;28;20041;-52
2022/12/05 06:02:01;;;;;;;4.00;2.70;;;20.50;99.90;;;;;;5014233;28;20030;-54
2022/12/05 06:04:27;;;;;;;4.30;2.70;;;20.50;99.90;;;;;;4996465;28;20018;-53
2022/12/05 06:06:52;;;;;;;4.90;2.35;;;20.50;99.90;;;;;;5013890;28;20379;-53
2022/12/05 06:09:19;;;;;;;3.17;2.40;;;20.50;99.90;;;;;;5013974;28;20022;-53
2022/12/05 06:11:44;;;;;;;4.05;2.45;;;20.50;99.90;;;;;;5014062;28;20026;-53
2022/12/05 06:14:10;;;;;;;3.47;2.78;;;20.50;99.90;;;;;;5013877;28;20378;-53
2022/12/05 06:16:36;;;;;;;4.40;2.72;;;20.50;99.90;;;;;;5013814;28;20030;-53
2022/12/05 06:19:01;;;;;;;3.83;2.58;;;20.50;99.90;;;;;;5013931;28;20029;-53
2022/12/05 06:21:27;;;;;;;3.75;2.45;;;20.50;99.90;;;;;;5013677;28;20475;-53
2022/12/05 06:23:53;;;;;;;2.55;2.35;;;20.50;99.90;;;;;;5014067;28;20077;-54
2022/12/05 06:26:21;;;;;;;2.92;2.22;;;20.50;99.90;;;;;;5013265;28;20022;-53
2022/12/05 06:28:47;;;;;;;5.55;2.67;;;20.40;99.90;;;;;;5013621;28;20060;-54
2022/12/05 06:31:19;;;;;;;4.78;2.35;;;20.50;99.90;;;;;;5013543;28;20034;-54
2022/12/05 06:33:45;;;;;;;4.80;2.63;;;20.50;99.90;;;;;;5013430;28;20018;-54
2022/12/05 06:36:14;;;;;;;3.08;2.42;;;20.50;99.90;;;;;;4995992;28;20359;-54
2022/12/05 06:38:40;;;;;;;3.08;2.30;;;20.50;99.90;;;;;;5013531;28;20033;-54
2022/12/05 06:41:08;;;;;;;3.05;2.25;;;20.50;99.90;;;;;;5013392;28;20026;-53
2022/12/05 06:43:34;;;;;;;4.43;2.80;;;20.50;99.90;;;;;;4995767;28;20382;-53
2022/12/05 06:46:07;;;;;;;3.10;2.20;;;20.50;99.90;;;;;;5013491;28;20030;-53
2022/12/05 06:48:33;;;;;;;3.70;2.15;;;20.50;99.90;;;;;;5013487;28;20417;-54
2022/12/05 06:50:59;;;;;;;3.90;2.53;;;20.50;99.90;;;;;;5013367;28;20030;-54
2022/12/05 06:53:25;;;;;;;3.22;2.40;;;20.50;99.90;;;;;;5013217;28;20032;-54
2022/12/05 06:55:58;;;;;;;5.05;2.90;;;20.50;99.90;;;;;;5013110;28;20034;-53
2022/12/05 06:58:25;;;;;;;4.82;2.60;;;20.40;99.90;;;;;;5013150;28;20120;-53
2022/12/05 07:03:35;;;;;;;6.10;2.47;;;20.40;99.90;;;;;;5013467;28;20052;-53
2022/12/05 07:06:03;;;;;;;3.88;3.13;;;20.40;99.90;;;;;;5013121;28;20046;-54
2022/12/05 07:08:29;;;;;;;3.88;2.55;;;20.40;99.90;;;;;;5013019;28;20026;-54
2022/12/05 07:10:54;;;;;;;3.38;2.38;;;20.40;99.90;;;;;;5012887;28;20053;-54
2022/12/05 07:13:20;;;;;;;4.78;2.50;;;20.40;99.90;;;;;;5012876;28;20034;-54
2022/12/05 07:15:47;;;;;;;3.78;2.40;;;20.40;99.90;;;;;;5012875;28;20022;-54
2022/12/05 07:18:13;;;;;;;3.53;2.28;;;20.40;99.90;;;;;;5012672;28;20058;-54
2022/12/05 07:20:39;;;;;;;4.68;3.25;;;20.40;99.90;;;;;;5012769;28;20026;-54
2022/12/05 07:23:05;;;;;;;3.20;2.40;;;20.40;99.90;;;;;;5012980;28;20030;-54
2022/12/05 07:25:31;;;;;;;3.97;2.35;;;20.40;99.90;;;;;;5012615;28;20057;-54
2022/12/05 07:27:56;;;;;;;3.95;2.63;;;20.40;99.90;;;;;;4994912;28;20542;-54
2022/12/05 07:30:22;;;;;;;4.20;2.65;;;20.40;99.90;;;;;;5012640;28;20033;-54
2022/12/05 07:32:48;;;;;;;3.88;2.33;;;20.40;99.90;;;;;;5012513;28;20467;-54
2022/12/05 07:35:14;;;;;;;3.22;2.33;;;20.40;99.90;;;;;;5012428;28;20425;-54
2022/12/05 07:37:39;;;;;;;3.75;2.10;;;20.40;99.90;;;;;;5011655;28;20042;-54
2022/12/05 07:40:06;;;;;;;4.95;1.98;;;20.40;99.90;;;;;;5012654;28;20030;-54
2022/12/05 07:42:31;;;;;;;3.97;2.50;;;20.40;99.90;;;;;;5012190;28;20034;-54
2022/12/05 07:44:57;;;;;;;3.17;2.30;;;20.40;99.90;;;;;;4994339;28;20321;-53
2022/12/05 07:47:23;;;;;;;3.22;2.60;;;20.30;99.90;;;;;;5012336;28;20394;-54
2022/12/05 07:49:49;;;;;;;3.20;2.15;;;20.40;99.90;;;;;;5012145;28;20033;-53
2022/12/05 07:52:14;;;;;;;5.50;2.55;;;20.40;99.90;;;;;;5012182;28;20059;-53
2022/12/05 07:54:40;;;;;;;4.05;2.10;;;20.40;99.90;;;;;;5012187;28;20022;-53
2022/12/05 07:57:06;;;;;;;4.68;2.55;;;20.40;99.90;;;;;;4994757;28;20026;-53
2022/12/05 07:59:31;;;;;;;4.40;2.30;;;20.40;99.90;;;;;;5012195;28;20435;-53
2022/12/05 08:01:57;;;;;;;3.72;2.10;;;20.40;99.90;;;;;;5011984;28;20428;-53
2022/12/05 08:04:23;;;;;;;4.70;2.65;;;20.30;99.90;;;;;;5012082;28;20025;-53
2022/12/05 08:06:48;;;;;;;3.85;2.25;;;20.30;99.90;;;;;;5012008;28;20041;-53
2022/12/05 08:09:14;;;;;;;3.28;2.70;;;20.40;99.90;;;;;;5012268;28;20026;-53
2022/12/05 08:11:40;;;;;;;3.13;2.08;;;20.40;99.90;;;;;;5012440;28;20025;-52
2022/12/05 08:14:06;;;;;;;3.22;2.38;;;20.30;99.90;;;;;;5012247;28;20101;-54
2022/12/05 08:16:32;;;;;;;4.43;2.58;;;20.30;99.90;;;;;;5012014;28;20060;-54
2022/12/05 08:19:07;;;;;;;5.13;2.28;;;20.30;99.90;;;;;;5012038;28;20102;-53
2022/12/05 08:21:33;;;;;;;3.90;2.40;;;20.30;99.90;;;;;;5011966;28;20034;-53
2022/12/05 08:24:00;;;;;;;3.15;2.28;;;20.30;99.90;;;;;;5012063;28;20053;-53
2022/12/05 08:26:28;;;;;;;3.53;1.95;;;20.40;99.90;;;;;;5012125;28;20026;-53
2022/12/05 08:28:57;;;;;;;4.95;2.30;;;20.40;99.90;;;;;;4994387;28;20390;-53
2022/12/05 08:31:24;;;;;;;2.97;2.00;;;20.30;99.90;;;;;;5011908;28;20061;-54
2022/12/05 08:33:51;;;;;;;3.90;1.98;;;20.40;99.90;;;;;;5011900;28;20029;-54
2022/12/05 08:36:18;;;;;;;3.72;2.15;;;20.40;99.90;;;;;;5012041;28;20116;-53
2022/12/05 08:38:44;;;;;;;2.73;2.20;;;20.40;99.90;;;;;;5011876;28;20390;-53
2022/12/05 08:41:16;;;;;;;3.22;2.20;;;20.40;99.90;;;;;;5011804;28;20264;-53
2022/12/05 08:43:42;;;;;;;2.83;1.98;;;20.40;99.90;;;;;;5011959;28;20021;-53
2022/12/05 08:46:09;;;;;;;3.15;2.85;;;20.40;99.90;;;;;;5011807;28;20049;-54
2022/12/05 08:48:35;;;;;;;4.82;2.38;;;20.40;99.90;;;;;;5011787;28;20026;-54
2022/12/05 08:51:06;;;;;;;4.68;2.55;;;20.40;99.90;;;;;;5015301;28;20030;-53
2022/12/05 08:53:33;;;;;;;2.97;2.20;;;20.40;99.90;;;;;;5015461;28;20693;-54
2022/12/05 08:56:04;;;;;;;4.35;1.88;;;20.50;99.90;;;;;;5015288;28;20018;-54
2022/12/05 08:58:31;;;;;;;3.33;2.08;;;20.50;99.90;;;;;;5015171;28;20045;-54
2022/12/05 09:01:06;;;;;;;3.65;2.40;;;20.50;99.90;;;;;;5014840;28;20050;-53
2022/12/05 09:03:32;;;;;;;2.83;2.10;;;20.50;99.90;;;;;;5015131;28;20041;-54
2022/12/05 09:06:21;;;;;;;4.88;2.30;;;20.60;99.90;;;;;;5015018;28;20371;-54
2022/12/05 09:08:48;;;;;;;2.70;1.98;;;20.60;99.90;;;;;;5015173;28;20026;-53
2022/12/05 09:11:18;;;;;;;2.88;2.17;;;20.70;99.90;;;;;;5014976;28;20105;-53
2022/12/05 09:13:45;;;;;;;2.35;1.85;;;20.70;99.90;;;;;;5015061;28;20393;-53
2022/12/05 09:16:19;;;;;;;2.60;2.13;;;20.80;99.90;;;;;;5015281;28;20030;-53
2022/12/05 09:18:45;;;;;;;2.63;2.00;;;20.80;99.90;;;;;;5014894;28;20117;-53
2022/12/05 09:21:18;;;;;;;3.20;2.53;;;20.90;99.90;;;;;;5015017;28;20037;-53
2022/12/05 09:23:44;;;;;;;2.60;2.05;;;20.90;99.90;;;;;;5014926;28;20038;-53
2022/12/05 09:26:14;;;;;;;3.65;2.50;;;20.90;99.90;;;;;;5014971;28;20025;-53
2022/12/05 09:28:40;;;;;;;3.03;2.15;;;21.00;99.90;;;;;;5014843;28;20025;-53
2022/12/05 09:31:08;;;;;;;4.15;2.05;;;21.00;99.90;;;;;;5014576;28;20030;-53
2022/12/05 09:33:36;;;;;;;5.85;2.40;;;21.00;99.90;;;;;;5014650;28;20032;-53
2022/12/05 09:36:23;;;;;;;4.35;2.30;;;21.00;99.90;;;;;;5014443;28;20095;-53
2022/12/05 09:38:49;;;;;;;3.17;2.57;;;21.10;99.90;;;;;;5014570;28;20505;-53
2022/12/05 09:42:06;;;;;;;3.15;2.13;;;21.10;99.90;;;;;;5014550;28;20429;-53
2022/12/05 09:45:13;;;;;;;4.57;2.25;;;21.20;99.90;;;;;;5014399;28;20544;-53
2022/12/05 09:47:45;;;;;;;3.53;2.45;;;21.20;99.90;;;;;;5014254;28;20088;-53
2022/12/05 09:50:29;;;;;;;4.15;2.33;;;21.30;99.90;;;;;;5014164;28;20080;-52
2022/12/05 09:53:23;;;;;;;3.38;2.30;;;21.30;99.90;;;;;;5014030;28;20021;-53
2022/12/05 09:56:05;;;;;;;4.05;2.00;;;21.30;99.90;;;;;;5014055;28;20022;-54
2022/12/05 09:58:50;;;;;;;3.35;2.47;;;21.40;99.90;;;;;;4996407;28;20061;-53
2022/12/05 10:01:39;;;;;;;4.97;2.30;;;21.40;99.90;;;;;;5013033;28;20532;-53
2022/12/05 10:04:12;;;;;;;4.60;2.10;;;21.40;99.90;;;;;;5014002;28;20025;-53
2022/12/05 10:06:47;;;;;;;3.10;2.08;;;21.40;99.90;;;;;;5013848;28;20036;-53
2022/12/05 10:09:28;;;;;;;3.40;1.88;;;21.40;99.90;;;;;;5013932;28;20046;-53
2022/12/05 10:11:59;;;;;;;5.10;2.35;;;21.40;99.90;;;;;;5013685;28;20057;-53
2022/12/05 10:14:34;;;;;;;4.55;2.03;;;21.50;99.90;;;;;;5013669;28;20029;-53
2022/12/05 10:17:19;;;;;;;2.88;2.15;;;21.40;99.90;;;;;;5013612;28;20037;-53
2022/12/05 10:19:48;;;;;;;3.67;2.25;;;21.40;99.90;;;;;;4996228;28;20026;-53
2022/12/05 10:22:21;;;;;;;3.90;2.10;;;21.40;99.90;;;;;;5013790;28;20107;-53
2022/12/05 10:24:59;;;;;;;4.18;2.55;;;21.50;99.90;;;;;;5013647;28;20060;-53
2022/12/05 10:27:39;;;;;;;3.45;2.10;;;21.50;99.90;;;;;;5013206;28;20037;-53
2022/12/05 10:30:28;;;;;;;5.00;3.00;;;21.50;99.90;;;;;;5013334;28;20375;-53
2022/12/05 10:32:56;;;;;;;2.53;1.98;;;21.50;99.90;;;;;;5013238;28;20164;-53
2022/12/05 10:35:38;;;;;;;3.38;2.50;;;21.50;99.90;;;;;;5013253;28;20022;-53
2022/12/05 10:38:10;;;;;;;3.03;1.95;;;21.50;99.90;;;;;;5013078;28;20091;-53
2022/12/05 10:40:48;;;;;;;4.15;2.40;;;21.50;99.90;;;;;;4995610;28;20110;-53
2022/12/05 10:43:22;;;;;;;3.63;2.78;;;21.50;99.90;;;;;;5013378;28;20057;-54
2022/12/05 10:45:48;;;;;;;4.15;2.17;;;21.50;99.90;;;;;;5013326;28;20072;-54
2022/12/05 10:48:17;;;;;;;4.07;2.83;;;21.50;99.90;;;;;;5012947;28;20057;-54
2022/12/05 10:50:47;;;;;;;6.28;2.95;;;21.60;99.90;;;;;;5013091;28;20072;-53
2022/12/05 10:53:39;;;;;;;6.70;3.00;;;21.60;99.90;;;;;;5012934;28;20026;-54
2022/12/05 10:56:36;;;;;;;5.35;3.05;;;21.70;99.90;;;;;;5012926;28;20113;-54
2022/12/05 10:59:02;;;;;;;7.20;3.25;;;21.70;99.90;;;;;;5012968;28;20379;-53
2022/12/05 11:01:29;;;;;;;4.45;2.95;;;21.80;99.90;;;;;;5012005;28;20046;-53
2022/12/05 11:04:00;;;;;;;4.65;3.00;;;21.80;99.90;;;;;;5003525;28;20036;-54
2022/12/05 11:06:27;;;;;;;4.32;2.88;;;21.80;99.90;;;;;;5003500;28;20022;-53
2022/12/05 11:09:05;;;;;;;6.25;3.15;;;21.80;99.90;;;;;;5001313;28;20034;-53
2022/12/05 11:11:32;;;;;;;7.70;3.60;;;21.80;99.90;;;;;;5000767;28;20356;-54
2022/12/05 11:14:19;;;;;;;10.32;3.08;;;21.80;99.90;;;;;;4993903;28;20033;-53
2022/12/05 11:16:54;;;;;;;6.72;3.70;;;21.80;99.90;;;;;;5011595;28;20026;-53
2022/12/05 11:19:20;;;;;;;7.57;3.83;;;21.80;99.90;;;;;;5012472;28;20037;-53
2022/12/05 11:21:49;;;;;;;7.45;3.72;;;21.80;99.90;;;;;;5006693;28;20375;-52
2022/12/05 11:24:28;;;;;;;6.40;4.00;;;21.80;99.90;;;;;;5002503;28;20497;-53
2022/12/05 11:26:54;;;;;;;7.28;3.70;;;21.80;99.90;;;;;;5004071;28;20378;-53
2022/12/05 11:29:31;;;;;;;4.83;3.47;;;21.80;99.90;;;;;;5005892;28;20115;-53
2022/12/05 11:31:56;;;;;;;6.90;3.28;;;21.80;99.90;;;;;;5012462;28;20024;-51
2022/12/05 11:34:26;;;;;;;5.40;3.63;;;21.80;99.90;;;;;;5005658;28;20034;-53
2022/12/05 11:37:13;;;;;;;7.18;3.47;;;21.80;99.90;;;;;;5007014;28;20026;-54
2022/12/05 11:39:39;;;;;;;;;;;21.80;99.90;;;;;;4993114;28;20038;-54
2022/12/05 11:42:21;;;;;;;12.20;4.43;;;21.80;99.90;;;;;;4991394;28;19906;-54
2022/12/05 11:45:00;;;;;;;8.65;3.67;;;21.80;99.90;;;;;;4992741;28;20030;-54
2022/12/05 11:47:56;;;;;;;6.28;3.92;;;21.90;99.90;;;;;;4992744;28;20111;-54
2022/12/05 11:50:35;;;;;;;8.40;3.67;;;21.90;99.90;;;;;;4992841;28;20030;-54
2022/12/05 11:53:49;;;;;;;8.10;3.92;;;21.90;99.90;;;;;;4992608;28;20479;-54
2022/12/05 11:56:31;;;;;;;6.72;3.72;;;21.90;99.90;;;;;;4992392;28;20081;-54
2022/12/05 11:59:27;;;;;;;9.48;4.35;;;21.90;99.90;;;;;;4990493;28;20038;-54
2022/12/05 12:02:25;;;;;;;5.97;3.70;;;21.90;99.90;;;;;;4990321;28;20097;-54
2022/12/05 12:05:10;;;;;;;9.57;4.82;;;21.90;99.90;;;;;;4953142;28;20395;-54
2022/12/05 12:07:35;;;;;;;7.57;4.43;;;21.80;99.90;;;;;;4990634;28;20386;-54
2022/12/05 12:10:25;;;;;;;8.55;4.03;;;21.80;99.90;;;;;;4992360;28;20022;-54
2022/12/05 12:12:57;;;;;;;10.10;5.15;;;21.80;99.90;;;;;;4992532;28;20038;-54
2022/12/05 12:15:45;;;;;;;8.68;4.57;;;21.80;99.90;;;;;;4992359;28;20092;-54
2022/12/05 12:18:39;;;;;;;7.85;4.20;;;21.80;99.90;;;;;;4992114;28;20434;-54
2022/12/05 12:21:17;;;;;;;10.25;4.40;;;21.80;99.90;;;;;;4992315;28;20029;-55
2022/12/05 12:24:05;;;;;;;6.90;4.53;;;21.80;99.90;;;;;;4992594;28;20034;-54
2022/12/05 12:27:09;;;;;;;16.05;5.03;;;21.80;99.90;;;;;;5000624;28;20025;-54
2022/12/05 12:29:45;;;;;;;9.77;4.88;;;21.80;99.90;;;;;;5015673;28;20018;-54
2022/12/05 12:32:20;;;;;;;11.57;4.72;;;21.80;99.90;;;;;;4998661;28;20447;-54
2022/12/05 12:34:51;;;;;;;9.80;4.70;;;21.80;99.90;;;;;;4996065;28;20034;-54
2022/12/05 12:37:38;;;;;;;172.05;21.42;;;21.80;99.90;;;;;;4995764;28;20045;-54
2022/12/05 12:40:13;;;;;;;70.88;9.13;;;21.80;99.90;;;;;;4995801;28;20053;-53
2022/12/05 12:42:41;;;;;;;227.15;24.73;;;21.80;99.90;;;;;;4995865;28;20134;-53
2022/12/05 12:45:38;;;;;;;120.05;16.02;;;21.70;99.90;;;;;;4995841;28;20479;-53
2022/12/05 12:48:31;;;;;;;157.38;17.42;;;21.70;99.90;;;;;;4995577;28;20073;-52
2022/12/05 12:51:01;;;;;;;145.77;17.60;;;21.70;99.90;;;;;;4995570;28;20030;-54
2022/12/05 12:53:48;;;;;;;118.30;15.25;;;21.70;99.90;;;;;;4996102;28;20374;-54
2022/12/05 12:56:18;;;;;;;129.68;14.98;;;21.80;99.90;;;;;;4995638;28;20029;-54
2022/12/05 12:59:11;;;;;;;104.90;16.60;;;21.80;99.90;;;;;;4995528;28;20475;-55
2022/12/05 13:02:01;;;;;;;99.10;14.88;;;21.80;99.90;;;;;;4997386;28;20046;-55
2022/12/05 13:04:32;;;;;;;81.10;12.98;;;21.80;99.90;;;;;;4981568;28;20406;-54
2022/12/05 13:07:14;;;;;;;94.45;12.80;;;21.80;99.90;;;;;;5014648;28;20026;-54
2022/12/05 13:09:49;;;;;;;95.53;12.85;;;21.80;99.90;;;;;;5014555;28;20029;-54
2022/12/05 13:12:20;;;;;;;102.97;14.50;;;21.80;99.90;;;;;;5014588;28;20101;-54
2022/12/05 13:14:53;;;;;;;75.88;13.52;;;21.80;99.90;;;;;;5014533;28;20033;-54
2022/12/05 13:17:21;;;;;;;88.30;15.85;;;21.80;99.90;;;;;;5009052;28;20031;-55
2022/12/05 13:19:52;;;;;;;76.60;13.93;;;21.80;99.90;;;;;;5006385;28;20077;-61
2022/12/05 13:22:21;;;;;;;69.60;12.43;;;21.80;99.90;;;;;;5014265;28;20022;-58